Terminal Aerodrome Forecast
Issued by NWS Corpus Christi, TX

Home | Current Version | Previous Version | Text Only | Print | Product List | Glossary On
Versions: 1 2 3 4 5 6 7 8 9 10 11 12 13 14
000
FTUS44 KCRP 292335
TAFCRP
TAF
KCRP 292335Z 3000/3024 12014KT P6SM SCT035 SCT250
     FM300200 15007KT P6SM FEW015 SCT250
     FM301300 17012KT P6SM SCT020 SCT035
     FM301800 14015KT P6SM SCT040=

USA.gov is the U.S. government's official web portal to all federal, state and local government web resources and services.